Time;durP1;ratioP1;P1;durP2;ratioP2;P2;SDS_P1;SDS_P2;PMS_P1;PMS_P2;Temp;Humidity;BMP_temperature;BMP_pressure;BME280_temperature;BME280_humidity;BME280_pressure;Samples;Min_cycle;Max_cycle;Signal;HPM_P1;HPM_P2
2022/01/16 00:00:26;;;;;;;87.80;24.60;;;;;;;1.14;90.66;102308.38;5052745;28;20028;-91
2022/01/16 00:05:28;;;;;;;68.25;24.73;;;;;;;1.14;90.91;102346.56;5068323;28;20117;-91
2022/01/16 00:07:54;;;;;;;86.53;27.40;;;;;;;1.11;90.93;102329.13;5052130;28;20024;-92
2022/01/16 00:10:21;;;;;;;61.47;22.58;;;;;;;1.18;90.60;102325.84;5051583;28;20090;-92
2022/01/16 00:12:48;;;;;;;57.47;21.75;;;;;;;1.24;90.86;102332.91;5066164;28;20031;-91
2022/01/16 00:15:21;;;;;;;64.05;20.58;;;;;;;1.26;90.67;102326.91;5052015;28;20028;-91
2022/01/16 00:18:08;;;;;;;90.32;21.95;;;;;;;1.35;90.16;102340.94;5052600;28;20205;-91
2022/01/16 00:20:33;;;;;;;73.95;23.17;;;;;;;1.21;90.38;102338.03;5048810;28;20036;-91
2022/01/16 00:22:59;;;;;;;65.18;24.50;;;;;;;1.22;90.35;102338.09;5064353;28;20031;-91
2022/01/16 00:25:24;;;;;;;56.85;22.20;;;;;;;1.06;90.61;102314.25;5056361;28;20020;-91
2022/01/16 00:27:50;;;;;;;60.83;22.80;;;;;;;1.17;90.74;102321.47;5046901;28;20523;-91
2022/01/16 00:30:17;;;;;;;91.43;24.35;;;;;;;1.18;90.40;102320.63;5041494;28;20060;-92
2022/01/16 00:32:44;;;;;;;44.42;17.88;;;;;;;1.15;90.45;102312.75;5048510;28;20053;-91
2022/01/16 00:35:11;;;;;;;55.08;22.58;;;;;;;1.15;90.40;102317.06;5068118;28;20109;-92
2022/01/16 00:37:36;;;;;;;62.55;24.17;;;;;;;1.13;90.21;102321.38;5052141;28;20031;-92
2022/01/16 00:40:02;;;;;;;51.97;21.30;;;;;;;1.06;90.37;102325.56;5051029;28;20028;-91
2022/01/16 00:42:28;;;;;;;53.33;21.45;;;;;;;1.11;90.19;102315.25;5050804;28;21048;-92
2022/01/16 00:44:54;;;;;;;59.38;22.77;;;;;;;1.06;89.75;102306.44;5059504;28;20107;-91
2022/01/16 00:47:19;;;;;;;54.65;21.98;;;;;;;1.16;89.88;102318.81;5050250;28;20127;-90
2022/01/16 00:49:44;;;;;;;58.38;23.15;;;;;;;1.18;90.15;102302.41;5066545;28;20047;-91
2022/01/16 00:52:10;;;;;;;53.45;21.70;;;;;;;1.28;90.44;102319.09;5052384;28;20392;-91
2022/01/16 00:54:37;;;;;;;57.50;22.85;;;;;;;1.27;90.17;102320.84;5068259;28;20036;-92
2022/01/16 00:57:03;;;;;;;60.47;23.25;;;;;;;1.37;90.27;102315.81;5067131;28;20029;-92
2022/01/16 00:59:28;;;;;;;63.95;24.08;;;;;;;1.39;90.18;102290.66;5068634;28;20033;-92
2022/01/16 01:01:53;;;;;;;59.40;21.17;;;;;;;1.27;90.03;102260.03;5069430;28;20376;-92
2022/01/16 01:04:19;;;;;;;69.85;26.52;;;;;;;1.33;90.06;102267.97;5051701;28;20027;-91
2022/01/16 01:06:48;;;;;;;60.33;24.15;;;;;;;1.31;90.10;102290.53;5068610;28;20418;-92
2022/01/16 01:09:13;;;;;;;72.97;27.38;;;;;;;1.24;90.15;102273.00;5046889;28;20077;-92
2022/01/16 01:11:40;;;;;;;66.80;24.83;;;;;;;1.33;90.60;102304.44;5066082;28;20452;-92
2022/01/16 01:19:23;;;;;;;69.57;25.20;;;;;;;1.40;90.70;102289.81;5065306;28;20040;-93
2022/01/16 01:21:49;;;;;;;71.18;26.25;;;;;;;1.33;90.70;102287.94;5051211;28;20483;-93
2022/01/16 01:24:14;;;;;;;76.88;24.35;;;;;;;1.36;90.61;102264.56;5067485;28;20028;-91
2022/01/16 01:26:50;;;;;;;81.93;27.45;;;;;;;1.40;90.68;102290.72;5065776;28;20060;-92
2022/01/16 01:29:19;;;;;;;88.85;28.10;;;;;;;1.36;90.62;102281.06;5058886;28;20055;-92
2022/01/16 01:31:45;;;;;;;93.38;30.02;;;;;;;1.32;91.08;102283.59;5067339;28;20566;-92
2022/01/16 01:34:10;;;;;;;103.25;27.50;;;;;;;1.36;91.02;102282.81;5067677;28;20028;-92
2022/01/16 01:36:35;;;;;;;82.70;26.80;;;;;;;1.46;91.02;102261.28;5050248;28;20024;-92
2022/01/16 01:39:01;;;;;;;79.25;23.40;;;;;;;1.50;90.83;102218.81;5047872;28;20444;-92
2022/01/16 01:41:28;;;;;;;113.90;31.35;;;;;;;1.48;91.06;102210.94;5047992;28;20073;-93
2022/01/16 01:52:06;;;;;;;137.68;31.65;;;;;;;1.53;91.05;102245.78;5068904;28;20449;-92
2022/01/16 01:54:31;;;;;;;114.70;29.52;;;;;;;1.59;91.07;102254.59;5053465;28;20028;-92
2022/01/16 01:56:58;;;;;;;127.88;31.08;;;;;;;1.63;90.95;102249.47;5050272;28;20028;-92
2022/01/16 01:59:23;;;;;;;109.88;29.60;;;;;;;1.62;91.18;102276.38;5045618;28;20035;-92
2022/01/16 02:01:49;;;;;;;98.15;26.85;;;;;;;1.61;90.96;102269.41;5069288;28;20025;-92
2022/01/16 02:04:14;;;;;;;142.13;39.28;;;;;;;1.49;91.19;102283.09;5068402;28;20059;-93
2022/01/16 02:06:39;;;;;;;100.80;29.05;;;;;;;1.55;91.30;102291.88;5050332;28;20028;-93
2022/01/16 02:09:06;;;;;;;93.32;26.73;;;;;;;1.60;90.71;102305.88;5050543;28;20071;-92
2022/01/16 02:11:33;;;;;;;187.40;35.90;;;;;;;1.37;91.40;102284.56;5069487;28;20032;-92
2022/01/16 02:35:56;;;;;;;103.38;29.50;;;;;;;1.16;91.65;102332.72;5000314;28;20383;-92
2022/01/16 02:38:21;;;;;;;149.13;41.17;;;;;;;1.07;91.53;102326.44;5052274;28;20451;-92
2022/01/16 02:40:49;;;;;;;172.63;42.00;;;;;;;0.99;91.43;102329.75;5048804;28;20017;-93
2022/01/16 02:43:17;;;;;;;126.32;30.98;;;;;;;1.11;91.38;102321.31;5053873;28;20115;-92
2022/01/16 02:45:47;;;;;;;130.23;30.08;;;;;;;1.08;91.18;102317.78;5054707;28;20103;-92
2022/01/16 02:48:12;;;;;;;110.97;29.67;;;;;;;0.97;91.10;102297.56;5054130;28;20036;-92
2022/01/16 02:50:38;;;;;;;112.90;29.35;;;;;;;1.00;91.14;102300.25;5054718;28;20165;-93
2022/01/16 02:53:09;;;;;;;128.35;32.65;;;;;;;0.91;90.92;102291.38;5053822;28;20668;-92
2022/01/16 02:55:39;;;;;;;111.25;29.63;;;;;;;0.88;91.34;102283.47;5054939;28;20082;-92
2022/01/16 02:58:04;;;;;;;43.45;17.15;;;;;;;0.94;91.05;102276.69;5053753;28;20042;-93
2022/01/16 03:00:30;;;;;;;131.23;28.65;;;;;;;0.87;91.11;102260.88;5067605;28;20479;-93
2022/01/16 03:02:55;;;;;;;148.40;34.50;;;;;;;0.87;91.31;102266.97;5043772;28;20480;-93
2022/01/16 03:05:20;;;;;;;140.50;36.72;;;;;;;0.87;91.54;102268.69;5053912;28;20028;-92
2022/01/16 03:07:46;;;;;;;131.13;31.75;;;;;;;0.95;91.48;102260.22;5068315;28;20025;-92
2022/01/16 03:12:47;;;;;;;116.75;29.67;;;;;;;0.98;91.42;102244.69;5073700;28;20036;-92
2022/01/16 03:15:14;;;;;;;107.80;30.27;;;;;;;0.94;91.71;102247.19;5054488;28;20028;-92
2022/01/16 03:21:52;;;;;;;119.55;32.70;;;;;;;1.04;91.41;102249.13;5070694;28;20040;-92
2022/01/16 03:23:12;;;;;;;123.75;34.80;;;;;;;1.08;91.27;102256.16;5070756;28;20052;-91
2022/01/16 03:25:37;;;;;;;97.38;31.38;;;;;;;1.04;91.32;102246.53;5078077;28;20472;-92
2022/01/16 03:28:03;;;;;;;89.30;27.42;;;;;;;1.02;91.34;102241.25;5068789;28;20029;-92
2022/01/16 03:30:28;;;;;;;101.90;32.22;;;;;;;1.09;91.17;102231.00;5052964;28;20048;-92
2022/01/16 03:32:54;;;;;;;103.18;35.40;;;;;;;1.07;91.40;102241.38;5071547;28;20055;-93
2022/01/16 03:35:19;;;;;;;108.03;35.33;;;;;;;1.14;91.50;102243.28;5053286;28;20120;-92
2022/01/16 03:37:45;;;;;;;97.60;33.08;;;;;;;1.15;91.23;102237.22;5052459;28;20031;-92
2022/01/16 03:40:11;;;;;;;104.45;33.53;;;;;;;1.20;91.02;102245.13;5045096;28;20032;-92
2022/01/16 03:42:38;;;;;;;102.55;33.30;;;;;;;1.16;91.38;102228.53;5051765;28;20530;-92
2022/01/16 03:45:05;;;;;;;121.35;40.20;;;;;;;1.19;91.34;102233.81;5053371;28;20024;-92
2022/01/16 03:47:31;;;;;;;91.82;32.70;;;;;;;1.23;91.34;102224.34;5050158;28;20029;-92
2022/01/16 03:49:57;;;;;;;98.53;36.03;;;;;;;1.20;91.14;102230.34;5053776;28;20052;-92
2022/01/16 03:52:22;;;;;;;92.82;32.45;;;;;;;1.25;91.15;102227.84;5053845;28;20158;-92
2022/01/16 03:54:47;;;;;;;99.60;33.65;;;;;;;1.13;91.25;102217.19;5050317;28;20388;-92
2022/01/16 03:57:13;;;;;;;109.65;37.08;;;;;;;1.21;91.53;102234.75;5052575;28;20387;-92
2022/01/16 03:59:38;;;;;;;116.35;38.17;;;;;;;1.29;91.27;102234.88;5053204;28;20342;-93
2022/01/16 04:02:04;;;;;;;116.88;41.63;;;;;;;1.28;91.16;102227.94;5071402;28;20040;-92
2022/01/16 04:04:30;;;;;;;105.30;38.65;;;;;;;1.37;91.23;102222.91;5052440;28;20042;-92
2022/01/16 04:06:55;;;;;;;99.38;38.35;;;;;;;1.36;91.22;102221.16;5052554;28;20028;-92
2022/01/16 04:09:21;;;;;;;96.85;35.75;;;;;;;1.48;91.17;102231.78;5052625;28;20020;-93
2022/01/16 04:11:55;;;;;;;96.07;34.30;;;;;;;1.55;91.02;102240.63;5052463;28;20089;-92
2022/01/16 04:14:23;;;;;;;107.22;39.28;;;;;;;1.58;90.82;102237.19;5050768;28;20028;-92
2022/01/16 04:16:51;;;;;;;87.63;34.83;;;;;;;1.60;90.76;102232.91;5052067;28;20614;-92
2022/01/16 04:19:18;;;;;;;103.40;41.17;;;;;;;1.60;90.81;102230.28;5052365;28;20017;-92
2022/01/16 04:21:43;;;;;;;108.38;41.72;;;;;;;1.60;90.79;102232.91;5052911;28;20031;-92
2022/01/16 04:24:08;;;;;;;66.00;25.20;;;;;;;1.68;90.76;102218.25;5050851;28;20024;-92
2022/01/16 04:26:34;;;;;;;102.80;42.03;;;;;;;1.59;90.74;102212.91;5068620;28;20078;-92
2022/01/16 04:28:59;;;;;;;95.15;35.95;;;;;;;1.68;90.91;102231.28;5068003;28;20082;-92
2022/01/16 04:31:24;;;;;;;96.80;44.63;;;;;;;1.57;90.71;102219.78;5070978;28;20028;-92
2022/01/16 04:33:50;;;;;;;97.75;40.42;;;;;;;1.62;90.82;102228.56;5055759;28;20043;-92
2022/01/16 04:36:15;;;;;;;105.50;39.38;;;;;;;1.67;91.01;102227.81;5054207;28;20039;-92
2022/01/16 04:38:46;;;;;;;85.35;36.38;;;;;;;1.73;90.87;102235.75;5069001;28;20024;-92
2022/01/16 04:43:56;;;;;;;105.05;48.85;;;;;;;1.72;90.78;102230.50;5064832;28;20040;-92
2022/01/16 04:46:24;;;;;;;90.90;42.33;;;;;;;1.80;90.77;102231.53;5050639;28;20028;-92
2022/01/16 04:48:51;;;;;;;83.90;33.63;;;;;;;1.89;90.58;102226.47;5051510;28;20039;-92
2022/01/16 04:51:18;;;;;;;94.10;39.67;;;;;;;1.83;90.67;102221.16;5052884;28;20032;-93
2022/01/16 04:53:43;;;;;;;95.15;37.85;;;;;;;1.78;90.77;102209.78;5050873;28;20487;-92
2022/01/16 04:56:09;;;;;;;87.40;39.90;;;;;;;1.85;90.72;102216.84;5069408;28;20036;-93
2022/01/16 04:58:35;;;;;;;92.40;43.38;;;;;;;1.79;90.62;102214.13;5051745;28;20031;-92
2022/01/16 05:01:01;;;;;;;100.53;48.40;;;;;;;1.81;90.63;102208.94;5051897;28;20036;-92
2022/01/16 05:03:28;;;;;;;78.40;34.53;;;;;;;1.90;90.72;102217.78;5051114;28;20028;-93
2022/01/16 05:05:54;;;;;;;84.35;39.05;;;;;;;1.83;90.73;102204.66;5066547;28;20028;-92
2022/01/16 05:08:19;;;;;;;101.25;46.80;;;;;;;1.85;90.83;102195.09;5050435;28;20039;-93
2022/01/16 05:10:45;;;;;;;91.10;39.58;;;;;;;1.98;90.77;102207.50;5066113;28;20020;-93
2022/01/16 05:18:33;;;;;;;79.60;35.92;;;;;;;1.95;91.08;102205.72;5065071;28;20042;-92
2022/01/16 05:20:59;;;;;;;79.82;37.83;;;;;;;2.03;91.09;102196.28;5064677;28;20104;-92
2022/01/16 05:23:25;;;;;;;70.13;33.10;;;;;;;2.09;90.70;102200.72;5045697;28;20398;-92
2022/01/16 05:25:51;;;;;;;96.32;41.88;;;;;;;2.12;90.69;102198.19;5050728;28;20035;-92
2022/01/16 05:28:16;;;;;;;99.10;42.63;;;;;;;2.11;90.70;102190.34;5049348;28;20028;-92
2022/01/16 05:30:41;;;;;;;88.72;41.33;;;;;;;2.21;90.55;102200.94;5051590;28;20467;-92
2022/01/16 05:33:08;;;;;;;78.88;34.40;;;;;;;2.15;90.72;102199.97;5049905;28;20577;-92
2022/01/16 05:35:33;;;;;;;95.95;42.70;;;;;;;2.22;90.61;102194.00;5067996;28;20067;-92
2022/01/16 05:37:58;;;;;;;88.00;40.00;;;;;;;2.19;90.69;102193.94;5050823;28;21297;-93
2022/01/16 05:40:24;;;;;;;91.00;38.47;;;;;;;2.21;90.51;102200.06;5046077;28;20369;-92
2022/01/16 05:42:49;;;;;;;82.55;36.28;;;;;;;2.25;90.67;102194.03;5050407;28;20032;-92
2022/01/16 05:45:14;;;;;;;93.65;40.58;;;;;;;2.20;90.94;102213.97;5050374;28;20107;-92
2022/01/16 05:47:40;;;;;;;71.68;32.65;;;;;;;2.20;90.65;102208.75;5051144;28;20121;-92
2022/01/16 05:50:06;;;;;;;78.28;35.08;;;;;;;2.28;90.47;102222.78;5047552;28;20195;-92
2022/01/16 05:52:31;;;;;;;102.50;44.85;;;;;;;2.18;90.97;102219.16;5051237;28;20090;-92
2022/01/16 05:54:56;;;;;;;92.40;42.83;;;;;;;2.16;91.22;102215.66;5067497;28;20028;-92
2022/01/16 05:57:22;;;;;;;87.45;38.33;;;;;;;2.33;90.57;102215.91;5050054;28;20066;-92
2022/01/16 05:59:47;;;;;;;96.10;42.25;;;;;;;2.26;90.74;102217.53;5070011;28;20432;-92
2022/01/16 06:02:13;;;;;;;80.78;34.97;;;;;;;2.29;90.83;102212.38;5047883;28;20128;-92
2022/01/16 06:04:39;;;;;;;62.78;24.65;;;;;;;2.40;90.44;102217.75;5049739;28;20551;-93
2022/01/16 06:07:05;;;;;;;91.82;42.83;;;;;;;2.29;90.60;102204.56;5068796;28;20056;-92
2022/01/16 06:09:31;;;;;;;81.20;37.97;;;;;;;2.37;90.83;102211.59;5067995;28;20024;-92
2022/01/16 06:11:57;;;;;;;102.30;45.20;;;;;;;2.36;90.75;102209.88;5067287;28;20032;-92
2022/01/16 06:14:23;;;;;;;120.82;57.22;;;;;;;2.30;90.76;102210.66;5046517;28;20567;-92
2022/01/16 06:16:49;;;;;;;83.65;35.10;;;;;;;2.48;90.53;102218.78;5069597;28;20376;-92
2022/01/16 06:19:14;;;;;;;92.97;40.38;;;;;;;2.50;90.21;102218.78;5047952;28;20032;-92
2022/01/16 06:21:39;;;;;;;102.88;46.97;;;;;;;2.37;90.81;102207.25;5055067;28;20032;-92
2022/01/16 06:24:08;;;;;;;119.47;58.53;;;;;;;2.37;91.05;102216.84;5062770;28;20032;-92
2022/01/16 06:26:33;;;;;;;104.20;43.42;;;;;;;2.49;90.76;102214.41;5038118;28;20366;-91
2022/01/16 06:28:59;;;;;;;94.65;40.67;;;;;;;2.58;90.35;102217.16;5050832;28;20070;-93
2022/01/16 06:31:24;;;;;;;103.78;45.90;;;;;;;2.56;90.56;102221.47;5051110;28;20028;-93
2022/01/16 06:33:50;;;;;;;84.72;38.65;;;;;;;2.51;90.78;102224.00;5049802;28;20106;-92
2022/01/16 06:36:16;;;;;;;75.53;31.95;;;;;;;2.70;90.14;102232.13;5049906;28;20111;-93
2022/01/16 06:38:41;;;;;;;104.85;47.10;;;;;;;2.68;90.17;102241.69;5065254;28;20066;-92
2022/01/16 06:41:08;;;;;;;99.60;40.45;;;;;;;2.65;90.61;102245.09;5068286;28;20036;-93
2022/01/16 06:43:33;;;;;;;75.30;34.78;;;;;;;2.75;90.28;102253.94;5050693;28;20527;-92
2022/01/16 06:45:59;;;;;;;111.95;49.53;;;;;;;2.71;90.70;102249.56;5068916;28;20074;-92
2022/01/16 06:48:24;;;;;;;71.88;31.77;;;;;;;2.79;90.24;102240.09;5049469;28;20024;-93
2022/01/16 06:50:49;;;;;;;92.40;40.92;;;;;;;2.81;90.14;102244.50;5050760;28;20037;-93
2022/01/16 06:53:15;;;;;;;92.20;41.22;;;;;;;2.81;90.24;102251.44;5048837;28;20112;-92
2022/01/16 06:55:40;;;;;;;91.32;41.03;;;;;;;2.90;90.25;102251.59;5043498;28;20485;-92
2022/01/16 06:58:06;;;;;;;83.38;36.13;;;;;;;2.96;89.97;102262.09;5066934;28;20060;-92
2022/01/16 07:00:31;;;;;;;83.72;34.60;;;;;;;2.98;89.75;102259.50;5046682;28;20437;-93
2022/01/16 07:02:57;;;;;;;82.32;35.30;;;;;;;3.00;90.01;102261.31;5053965;28;20418;-92
2022/01/16 07:05:22;;;;;;;99.93;44.40;;;;;;;2.89;90.22;102262.91;5057512;28;20101;-92
2022/01/16 07:07:47;;;;;;;92.00;36.78;;;;;;;2.99;89.84;102250.84;5054540;28;20244;-92
2022/01/16 07:10:13;;;;;;;89.35;37.80;;;;;;;3.01;89.80;102255.22;5051572;28;20034;-92
2022/01/16 07:12:38;;;;;;;86.15;41.28;;;;;;;2.96;89.80;102248.19;5052602;28;20024;-91
2022/01/16 07:15:06;;;;;;;82.38;37.35;;;;;;;3.09;89.87;102275.34;5071463;28;20406;-92
2022/01/16 07:17:32;;;;;;;69.43;29.50;;;;;;;3.03;89.89;102273.50;5053282;28;20025;-93
2022/01/16 07:19:57;;;;;;;87.75;35.97;;;;;;;3.07;90.08;102286.63;5054475;28;20025;-92
2022/01/16 07:22:23;;;;;;;94.05;38.97;;;;;;;3.15;89.71;102288.50;5068434;28;20101;-92
2022/01/16 07:24:50;;;;;;;77.55;36.17;;;;;;;3.17;89.76;102302.44;5052670;28;20493;-92
2022/01/16 07:27:16;;;;;;;72.60;29.05;;;;;;;3.22;89.02;102303.41;5071448;28;20490;-92
2022/01/16 07:29:41;;;;;;;70.28;30.23;;;;;;;3.24;89.57;102305.16;5053041;28;20024;-92
2022/01/16 07:32:07;;;;;;;78.07;34.00;;;;;;;3.30;89.36;102317.44;5070173;28;20114;-92
2022/01/16 07:34:33;;;;;;;74.03;31.58;;;;;;;3.34;89.23;102308.78;5071359;28;20720;-92
2022/01/16 07:36:58;;;;;;;79.55;33.50;;;;;;;3.29;89.38;102327.03;5053138;28;20369;-91
2022/01/16 07:39:24;;;;;;;86.00;36.13;;;;;;;3.29;89.24;102320.91;5065275;28;20052;-93
2022/01/16 07:41:49;;;;;;;87.18;36.65;;;;;;;3.31;89.02;102322.72;5068771;28;20293;-91
2022/01/16 07:44:14;;;;;;;57.28;25.85;;;;;;;3.44;89.09;102320.25;5052892;28;20110;-92
2022/01/16 07:46:40;;;;;;;63.47;28.92;;;;;;;3.42;88.62;102315.00;5052000;28;20024;-92
2022/01/16 07:49:05;;;;;;;60.08;27.08;;;;;;;3.45;88.65;102324.59;5051108;28;20506;-92
2022/01/16 07:51:32;;;;;;;77.20;29.40;;;;;;;3.48;88.60;102325.53;5052831;28;20024;-91
2022/01/16 07:53:57;;;;;;;65.10;30.10;;;;;;;3.53;88.43;102326.47;5051952;28;20017;-92
2022/01/16 07:56:23;;;;;;;59.45;26.95;;;;;;;3.57;88.41;102338.72;5053103;28;20025;-92
2022/01/16 07:58:48;;;;;;;64.90;29.27;;;;;;;3.56;88.25;102341.31;5051370;28;20402;-91
2022/01/16 08:01:14;;;;;;;65.40;29.20;;;;;;;3.67;88.21;102354.53;5070559;28;20021;-91
2022/01/16 08:03:39;;;;;;;65.38;27.42;;;;;;;3.70;87.98;102351.97;5053050;28;21230;-91
2022/01/16 08:06:04;;;;;;;52.42;22.80;;;;;;;3.71;88.02;102348.47;5053528;28;20037;-92
2022/01/16 08:08:30;;;;;;;66.88;32.58;;;;;;;3.73;88.23;102357.22;5069957;28;20032;-92
2022/01/16 08:10:55;;;;;;;60.03;27.02;;;;;;;3.78;88.08;102356.44;5052320;28;20062;-92
2022/01/16 08:13:20;;;;;;;70.38;29.75;;;;;;;3.75;88.06;102345.91;5069695;28;20024;-92
2022/01/16 08:15:46;;;;;;;70.32;33.47;;;;;;;3.76;87.90;102349.41;5052994;28;20024;-91
2022/01/16 08:18:11;;;;;;;72.78;35.05;;;;;;;3.73;87.93;102338.91;5070749;28;20472;-91
2022/01/16 08:20:36;;;;;;;65.75;31.38;;;;;;;3.77;87.94;102327.63;5043486;28;20028;-92
2022/01/16 08:23:02;;;;;;;62.30;29.63;;;;;;;3.83;87.92;102323.34;5051629;28;20040;-91
2022/01/16 08:25:27;;;;;;;54.75;24.08;;;;;;;3.92;87.83;102329.56;5053741;28;20555;-92
2022/01/16 08:27:52;;;;;;;73.50;31.60;;;;;;;3.86;87.95;102325.09;5050614;28;20024;-91
2022/01/16 08:30:18;;;;;;;63.53;28.63;;;;;;;3.87;88.05;102321.66;5045990;28;20032;-92
2022/01/16 08:32:44;;;;;;;60.30;26.80;;;;;;;3.85;88.01;102318.13;5058193;28;20036;-92
2022/01/16 08:35:10;;;;;;;58.90;27.38;;;;;;;4.00;87.79;102335.72;5049838;28;20554;-92
2022/01/16 08:37:35;;;;;;;58.42;28.00;;;;;;;3.92;88.31;102317.34;5050777;28;20063;-92
2022/01/16 08:40:01;;;;;;;58.63;25.75;;;;;;;4.00;88.07;102330.50;5052156;28;20494;-92
2022/01/16 08:42:26;;;;;;;75.68;34.00;;;;;;;3.98;87.66;102332.22;5050328;28;20471;-91
2022/01/16 08:44:51;;;;;;;73.03;32.53;;;;;;;3.93;88.22;102319.09;5052368;28;20036;-92
2022/01/16 08:47:17;;;;;;;72.03;29.85;;;;;;;4.07;87.94;102332.34;5051880;28;20056;-92
2022/01/16 08:49:43;;;;;;;73.32;33.67;;;;;;;3.97;88.35;102326.13;5051672;28;20028;-92
2022/01/16 08:52:09;;;;;;;82.55;35.00;;;;;;;3.99;88.25;102331.38;5052481;28;20024;-93
2022/01/16 08:54:34;;;;;;;78.57;34.03;;;;;;;4.07;88.34;102348.91;5068024;28;20537;-92
2022/01/16 08:57:03;;;;;;;72.07;33.45;;;;;;;4.11;88.10;102343.72;5051860;28;20028;-92
2022/01/16 08:59:28;;;;;;;74.50;30.58;;;;;;;4.12;87.93;102343.72;5056509;28;20017;-91
2022/01/16 09:01:54;;;;;;;73.25;30.27;;;;;;;4.17;87.57;102349.88;5056316;28;20027;-92
2022/01/16 09:04:19;;;;;;;72.18;31.08;;;;;;;4.16;87.55;102352.50;5050607;28;20032;-92
2022/01/16 09:06:45;;;;;;;52.63;22.63;;;;;;;4.28;87.61;102369.19;5051317;28;20020;-91
2022/01/16 09:09:10;;;;;;;65.22;26.10;;;;;;;4.26;87.67;102365.69;5051499;28;20069;-91
2022/01/16 09:11:36;;;;;;;65.93;26.58;;;;;;;4.31;87.62;102369.22;5051585;28;20024;-92
2022/01/16 09:14:01;;;;;;;63.50;25.67;;;;;;;4.28;87.43;102360.44;5044393;28;20391;-92
2022/01/16 09:16:27;;;;;;;68.20;29.73;;;;;;;4.34;87.17;102363.16;5053096;28;20025;-91
2022/01/16 09:18:53;;;;;;;59.65;26.48;;;;;;;4.46;87.26;102384.22;5050260;28;20051;-91
2022/01/16 09:21:19;;;;;;;70.82;32.65;;;;;;;4.47;87.16;102387.69;5051875;28;20463;-91
2022/01/16 09:23:46;;;;;;;73.75;31.25;;;;;;;4.51;87.30;102384.25;5068819;28;20031;-92
2022/01/16 09:26:12;;;;;;;76.32;33.10;;;;;;;4.43;87.62;102384.19;5051004;28;20553;-91
2022/01/16 09:28:37;;;;;;;74.22;34.67;;;;;;;4.49;87.22;102376.38;5051068;28;20463;-90
2022/01/16 09:31:04;;;;;;;81.30;35.78;;;;;;;4.58;87.35;102392.19;5049631;28;20119;-91
2022/01/16 09:33:29;;;;;;;68.25;29.75;;;;;;;4.61;86.90;102391.31;5050729;28;20090;-91
2022/01/16 09:35:55;;;;;;;81.32;32.40;;;;;;;4.70;86.88;102401.00;5050607;28;20434;-92
2022/01/16 09:38:22;;;;;;;66.88;26.70;;;;;;;4.75;86.76;102401.94;5049861;28;20077;-91
2022/01/16 09:40:49;;;;;;;88.88;38.20;;;;;;;4.70;86.99;102407.13;5051421;28;20033;-91
2022/01/16 09:43:15;;;;;;;85.47;35.92;;;;;;;4.79;87.10;102411.56;5065771;28;20067;-92
2022/01/16 09:45:41;;;;;;;83.95;34.17;;;;;;;4.84;86.92;102409.88;5056894;28;20066;-91
2022/01/16 09:48:06;;;;;;;81.72;31.40;;;;;;;4.87;86.58;102407.28;5050070;28;20024;-91
2022/01/16 09:50:32;;;;;;;62.05;26.05;;;;;;;4.91;86.60;102411.69;5069460;28;20107;-91
2022/01/16 09:52:59;;;;;;;84.47;32.47;;;;;;;4.90;87.02;102402.09;5051092;28;20024;-91
2022/01/16 09:55:25;;;;;;;97.32;40.92;;;;;;;4.93;86.83;102417.81;5049164;28;20042;-92
2022/01/16 09:57:51;;;;;;;76.65;30.15;;;;;;;5.02;86.65;102417.88;5068566;28;20020;-92
2022/01/16 10:00:20;;;;;;;91.03;33.97;;;;;;;5.01;86.56;102420.50;5050019;28;20043;-91
2022/01/16 10:02:46;;;;;;;58.20;23.45;;;;;;;4.87;87.02;102420.38;5047873;28;20391;-91
2022/01/16 10:05:25;;;;;;;69.32;27.42;;;;;;;5.00;86.91;102432.75;5052700;28;20471;-91
2022/01/16 10:07:51;;;;;;;97.25;37.00;;;;;;;4.95;87.06;102439.69;5040911;28;20032;-92
2022/01/16 10:10:17;;;;;;;90.93;32.90;;;;;;;4.95;87.16;102433.56;5046571;28;20032;-91
2022/01/16 10:12:51;;;;;;;88.00;32.75;;;;;;;5.06;86.73;102440.66;5047510;28;20392;-90
2022/01/16 10:15:28;;;;;;;89.10;30.38;;;;;;;5.07;86.88;102446.75;5055205;28;20028;-91
2022/01/16 10:17:56;;;;;;;65.07;26.08;;;;;;;5.09;86.69;102452.91;5058485;28;20105;-91
2022/01/16 10:20:23;;;;;;;83.25;31.00;;;;;;;5.10;87.17;102452.91;5049683;28;20403;-92
2022/01/16 10:22:54;;;;;;;85.00;32.70;;;;;;;5.07;86.70;102463.38;5043482;28;20536;-91
2022/01/16 10:25:45;;;;;;;86.65;31.83;;;;;;;5.17;86.77;102469.56;5067478;28;20427;-92
2022/01/16 10:28:25;;;;;;;96.30;34.53;;;;;;;5.10;86.79;102452.03;5064251;28;20059;-91
2022/01/16 10:30:57;;;;;;;104.60;41.22;;;;;;;5.01;86.83;102454.59;5049552;28;20127;-91
2022/01/16 10:33:32;;;;;;;56.85;23.13;;;;;;;5.22;86.33;102446.00;5068490;28;20048;-93
2022/01/16 10:35:57;;;;;;;80.88;29.50;;;;;;;5.29;86.30;102453.06;5065694;28;20032;-91
2022/01/16 10:38:26;;;;;;;96.18;36.90;;;;;;;5.48;86.02;102460.19;5050970;28;20454;-92
2022/01/16 10:40:53;;;;;;;79.93;29.08;;;;;;;5.59;85.82;102463.75;5050425;28;20158;-91
2022/01/16 10:43:40;;;;;;;80.95;28.20;;;;;;;5.67;86.04;102463.81;5070984;28;20535;-91
2022/01/16 10:46:06;;;;;;;94.40;32.83;;;;;;;5.60;85.84;102465.53;5054333;28;20027;-92
2022/01/16 10:48:32;;;;;;;92.32;32.60;;;;;;;5.49;85.38;102456.69;5071746;28;20036;-91
2022/01/16 10:50:58;;;;;;;106.80;38.53;;;;;;;5.48;85.53;102460.19;5071536;28;20024;-91
2022/01/16 10:53:26;;;;;;;94.00;31.73;;;;;;;5.68;85.11;102454.19;5053126;28;20340;-91
2022/01/16 10:55:56;;;;;;;101.22;33.35;;;;;;;5.89;85.36;102456.94;5072526;28;20021;-92
2022/01/16 10:58:25;;;;;;;78.45;26.33;;;;;;;5.97;84.82;102452.66;5057906;28;20028;-92
2022/01/16 11:01:07;;;;;;;78.43;27.63;;;;;;;6.03;84.86;102467.56;5048463;28;20035;-91
2022/01/16 11:03:45;;;;;;;72.38;24.70;;;;;;;5.89;85.02;102470.94;5049856;28;20040;-92
2022/01/16 11:06:11;;;;;;;66.22;24.25;;;;;;;5.91;84.59;102470.94;5067074;28;20044;-92
2022/01/16 11:08:38;;;;;;;84.70;29.45;;;;;;;5.70;84.68;102461.22;5047109;28;20039;-91
2022/01/16 11:11:03;;;;;;;66.95;24.58;;;;;;;5.76;85.01;102465.63;5051817;28;20463;-91
2022/01/16 11:13:32;;;;;;;66.95;23.08;;;;;;;5.81;84.76;102474.41;5045416;28;20036;-92
2022/01/16 11:16:02;;;;;;;69.97;25.58;;;;;;;5.71;85.00;102456.84;5053168;28;20032;-91
2022/01/16 11:18:27;;;;;;;69.28;25.88;;;;;;;5.69;84.51;102456.84;5050446;28;20480;-91
2022/01/16 11:21:14;;;;;;;80.70;29.25;;;;;;;5.64;84.79;102455.91;5067923;28;20033;-91
2022/01/16 11:26:22;;;;;;;91.65;34.88;;;;;;;5.59;85.61;102471.63;5049069;28;20412;-91
2022/01/16 11:28:50;;;;;;;75.38;28.02;;;;;;;5.65;85.45;102468.19;5069971;28;20038;-91
2022/01/16 11:31:15;;;;;;;80.63;28.08;;;;;;;5.68;85.27;102467.31;5050409;28;20518;-91
2022/01/16 11:33:42;;;;;;;90.75;35.83;;;;;;;5.67;85.83;102470.81;5055658;28;20071;-91
2022/01/16 11:36:14;;;;;;;62.50;20.90;;;;;;;5.76;85.16;102463.88;5052841;28;20407;-90
2022/01/16 11:38:47;;;;;;;76.85;27.77;;;;;;;5.80;85.54;102473.53;5067434;28;20032;-91
2022/01/16 11:41:37;;;;;;;84.22;34.80;;;;;;;5.73;85.70;102473.47;5051293;28;20021;-91
2022/01/16 11:44:05;;;;;;;66.22;25.00;;;;;;;5.65;85.86;102460.31;5055736;28;20494;-91
2022/01/16 11:46:34;;;;;;;76.78;24.20;;;;;;;5.67;85.44;102473.44;5059350;28;20028;-91
2022/01/16 11:48:59;;;;;;;81.95;31.15;;;;;;;5.67;85.56;102474.31;5044302;28;20028;-91
2022/01/16 11:51:39;;;;;;;89.10;35.05;;;;;;;5.58;86.04;102471.63;5053453;28;20036;-92
2022/01/16 11:54:06;;;;;;;79.45;29.90;;;;;;;5.54;86.46;102467.22;5066956;28;20028;-91
2022/01/16 11:56:41;;;;;;;77.90;31.60;;;;;;;5.63;86.21;102464.66;5052878;28;20558;-91
2022/01/16 11:59:12;;;;;;;82.43;32.33;;;;;;;5.61;85.76;102466.41;5068078;28;20507;-91
2022/01/16 12:01:44;;;;;;;82.05;30.60;;;;;;;5.66;85.66;102463.81;5056392;28;20114;-91
2022/01/16 12:04:28;;;;;;;80.55;31.05;;;;;;;5.45;86.61;102472.41;5060640;28;20070;-92
2022/01/16 12:07:20;;;;;;;81.30;27.05;;;;;;;5.60;86.39;102462.91;5050448;28;20117;-91